Lansing, West Virginia
Current Conditions -  °F | °C
As of 4:51 PM on Monday 20 Oct 2014 (Local Time) from KBKW Reporting Station
Overcast Overcast  
Wind Chill: 56°   Ceiling: 8000
Heat Index: 56°   Visibility: 10mi
Dew Point: 42°   Wind: 9mph
Humidity: 60%   Direction: 220°SW
Pressure: 29.97"   Gusts: 23mph
Location:  38.07°N, 81.07°W
Report Text: KBKW 202051Z AUTO 22008G20KT 10SM BKN080 OVC100 13/06 A2997 RMK AO2 SLP153 T01330056 55013 TSNO
Loading
Personal Weather Stations






























Interactive Weather Map
Tropical Storm Tracking
New forecast layout! Learn more

10-Day Weather Forecast

Advertisements
Track Severe Weather on mobile